Time;durP1;ratioP1;P1;durP2;ratioP2;P2;SDS_P1;SDS_P2;PMS_P1;PMS_P2;Temp;Humidity;BMP_temperature;BMP_pressure;BME280_temperature;BME280_humidity;BME280_pressure;Samples;Min_cycle;Max_cycle;Signal;HPM_P1;HPM_P2
2024/01/13 00:02:13;;;;;;;71.30;28.10;;;-2.50;42.90;;;;;;5041235;28;46561;-68
2024/01/13 00:04:39;;;;;;;76.63;26.43;;;-2.50;42.80;;;;;;5044150;28;46440;-70
2024/01/13 00:07:04;;;;;;;58.80;25.67;;;-2.40;42.70;;;;;;5048375;28;46838;-70
2024/01/13 00:09:30;;;;;;;58.03;23.80;;;-2.40;42.70;;;;;;5043969;28;46586;-70
2024/01/13 00:11:55;;;;;;;55.27;22.23;;;-2.50;42.70;;;;;;5044395;28;46619;-69
2024/01/13 00:14:21;;;;;;;68.40;24.57;;;-2.50;42.90;;;;;;5043756;28;46340;-70
2024/01/13 00:16:46;;;;;;;56.77;23.33;;;-2.50;42.90;;;;;;5031176;28;46186;-69
2024/01/13 00:19:12;;;;;;;48.37;20.43;;;-2.50;42.90;;;;;;5045785;28;46636;-70
2024/01/13 00:21:38;;;;;;;43.13;18.20;;;-2.40;43.00;;;;;;5044025;28;46528;-70
2024/01/13 00:24:04;;;;;;;51.33;20.43;;;-2.50;42.70;;;;;;5042281;28;46534;-69
2024/01/13 00:26:30;;;;;;;41.72;18.13;;;-2.50;42.70;;;;;;5046222;28;46784;-68
2024/01/13 00:28:56;;;;;;;48.40;19.83;;;-2.50;42.70;;;;;;5045481;28;46780;-71
2024/01/13 00:31:21;;;;;;;49.63;20.13;;;-2.50;42.70;;;;;;5044581;28;46893;-70
2024/01/13 00:33:47;;;;;;;48.73;19.60;;;-2.50;42.50;;;;;;5042831;28;46736;-68
2024/01/13 00:36:12;;;;;;;51.70;19.10;;;-2.50;42.40;;;;;;5043864;28;46703;-70
2024/01/13 00:38:38;;;;;;;44.77;18.07;;;-2.60;42.80;;;;;;5045492;28;46535;-69
2024/01/13 00:41:05;;;;;;;47.57;18.53;;;-2.60;42.50;;;;;;5046157;28;47156;-70
2024/01/13 00:43:30;;;;;;;48.58;18.88;;;-2.60;42.70;;;;;;5034535;28;46547;-70
2024/01/13 00:45:56;;;;;;;47.10;19.30;;;-2.60;42.70;;;;;;5044870;28;46277;-69
2024/01/13 00:48:22;;;;;;;50.70;21.17;;;-2.60;42.70;;;;;;5045448;28;46515;-69
2024/01/13 00:50:47;;;;;;;61.00;22.00;;;-2.70;42.80;;;;;;5028531;28;49253;-69
2024/01/13 00:53:13;;;;;;;53.63;21.30;;;-2.70;42.90;;;;;;5041689;28;46503;-69
2024/01/13 00:55:38;;;;;;;51.90;21.30;;;-2.70;42.60;;;;;;5042777;28;46833;-70
2024/01/13 00:58:04;;;;;;;66.80;23.90;;;-2.70;42.10;;;;;;5042923;28;46421;-69
2024/01/13 01:00:29;;;;;;;58.97;22.90;;;-2.70;41.70;;;;;;5044960;28;47248;-70
2024/01/13 01:02:55;;;;;;;73.83;25.30;;;-2.70;41.70;;;;;;5044657;28;46578;-69
2024/01/13 01:05:20;;;;;;;73.47;25.40;;;-2.70;41.70;;;;;;5041561;28;46617;-70
2024/01/13 01:07:47;;;;;;;64.53;23.43;;;-2.80;41.80;;;;;;5045353;28;46655;-69
2024/01/13 01:10:13;;;;;;;61.67;23.67;;;-2.70;42.60;;;;;;5040829;28;46193;-69
2024/01/13 01:12:39;;;;;;;65.70;24.47;;;-2.90;42.50;;;;;;5045708;28;46444;-69
2024/01/13 01:15:05;;;;;;;61.77;25.60;;;-3.00;43.00;;;;;;5046544;28;46769;-68
2024/01/13 01:17:30;;;;;;;66.60;27.25;;;-3.10;43.60;;;;;;5044860;28;45975;-68
2024/01/13 01:19:56;;;;;;;63.10;23.97;;;-3.10;43.60;;;;;;5043561;28;47206;-68
2024/01/13 01:22:22;;;;;;;51.72;23.35;;;-3.10;43.50;;;;;;5043256;28;46904;-69
2024/01/13 01:24:48;;;;;;;46.33;20.03;;;-3.20;43.40;;;;;;5043626;28;46452;-68
2024/01/13 01:27:13;;;;;;;51.67;21.00;;;-3.30;43.60;;;;;;5045004;28;46793;-67
2024/01/13 01:29:39;;;;;;;57.37;24.10;;;-3.50;44.40;;;;;;5043716;28;48059;-68
2024/01/13 01:32:05;;;;;;;66.30;25.67;;;-3.60;44.90;;;;;;5044399;28;46467;-69
2024/01/13 01:34:30;;;;;;;64.13;23.17;;;-3.60;45.00;;;;;;5042281;28;46666;-68
2024/01/13 01:36:56;;;;;;;57.20;23.87;;;-3.60;45.10;;;;;;5043279;28;46451;-68
2024/01/13 01:39:21;;;;;;;71.37;24.43;;;-3.70;44.90;;;;;;5045815;28;47199;-70
2024/01/13 01:41:47;;;;;;;58.77;24.50;;;-3.60;44.80;;;;;;5042631;28;46807;-69
2024/01/13 01:44:13;;;;;;;58.63;25.03;;;-3.60;44.70;;;;;;5042252;28;46365;-67
2024/01/13 01:46:39;;;;;;;64.83;23.43;;;-3.60;44.40;;;;;;5033912;28;46532;-69
2024/01/13 01:49:06;;;;;;;61.42;23.85;;;-3.50;44.20;;;;;;5045415;28;47851;-69
2024/01/13 01:51:32;;;;;;;73.07;25.40;;;-3.40;43.90;;;;;;5041310;28;46476;-68
2024/01/13 01:53:59;;;;;;;61.22;22.58;;;-3.40;43.70;;;;;;5043111;28;46961;-70
2024/01/13 01:56:28;;;;;;;69.72;24.55;;;-3.30;43.30;;;;;;5040263;28;46538;-70
2024/01/13 01:58:55;;;;;;;55.67;23.52;;;-3.30;43.20;;;;;;5043334;28;46580;-68
2024/01/13 02:01:22;;;;;;;52.78;23.00;;;-3.30;43.30;;;;;;5044022;28;46561;-68
2024/01/13 02:03:48;;;;;;;58.67;22.60;;;-3.30;43.20;;;;;;5042887;28;46590;-69
2024/01/13 02:06:15;;;;;;;62.67;22.50;;;-3.30;43.30;;;;;;5044158;28;46848;-70
2024/01/13 02:08:40;;;;;;;47.92;20.63;;;-3.30;43.60;;;;;;5045221;28;47150;-68
2024/01/13 02:11:07;;;;;;;55.93;22.30;;;-3.30;43.30;;;;;;5044016;28;46369;-68
2024/01/13 02:13:32;;;;;;;66.93;24.05;;;-3.20;43.00;;;;;;5043882;28;46846;-69
2024/01/13 02:15:58;;;;;;;59.37;23.70;;;-3.10;43.00;;;;;;5043858;28;46380;-70
2024/01/13 02:18:24;;;;;;;56.53;21.27;;;-3.10;42.80;;;;;;5043974;28;46190;-68
2024/01/13 02:20:49;;;;;;;64.00;22.47;;;-3.10;42.90;;;;;;5042150;28;47679;-70
2024/01/13 02:23:15;;;;;;;73.60;23.20;;;-3.20;43.10;;;;;;5042923;28;46909;-69
2024/01/13 02:25:41;;;;;;;58.33;23.50;;;-3.20;43.30;;;;;;5040733;28;46645;-70
2024/01/13 02:28:06;;;;;;;65.40;23.93;;;-3.10;43.10;;;;;;5044366;28;45940;-69
2024/01/13 02:30:32;;;;;;;49.30;22.40;;;-3.10;42.90;;;;;;5045228;28;45935;-67
2024/01/13 02:32:57;;;;;;;60.90;22.93;;;-3.10;43.10;;;;;;5045024;28;46458;-69
2024/01/13 02:35:23;;;;;;;63.53;22.37;;;-3.10;43.10;;;;;;5043962;28;46438;-70
2024/01/13 02:37:49;;;;;;;66.07;24.10;;;-3.20;43.40;;;;;;5043961;28;47238;-70
2024/01/13 02:40:14;;;;;;;56.87;23.83;;;-3.20;43.50;;;;;;5025726;28;47588;-69
2024/01/13 02:42:40;;;;;;;55.53;23.40;;;-3.20;43.30;;;;;;5042871;28;46329;-68
2024/01/13 02:45:06;;;;;;;56.87;23.00;;;-3.10;43.20;;;;;;5043498;28;46756;-68
2024/01/13 02:47:39;;;;;;;56.40;22.57;;;-3.10;43.20;;;;;;5045358;28;46479;-70
2024/01/13 02:50:05;;;;;;;53.40;22.20;;;-3.20;43.30;;;;;;5024486;28;46749;-69
2024/01/13 02:52:31;;;;;;;58.65;23.08;;;-3.20;43.20;;;;;;5040863;28;46680;-70
2024/01/13 02:54:56;;;;;;;50.27;21.87;;;-3.00;43.20;;;;;;5044605;28;46563;-69
2024/01/13 02:57:22;;;;;;;59.83;21.63;;;-3.10;42.70;;;;;;5040357;28;46618;-69
2024/01/13 02:59:47;;;;;;;63.03;23.23;;;-3.10;42.60;;;;;;5043914;28;46648;-69
2024/01/13 03:02:13;;;;;;;59.97;22.50;;;-3.10;42.70;;;;;;5042458;28;46622;-69
2024/01/13 03:04:38;;;;;;;58.60;24.50;;;-3.10;42.70;;;;;;5044812;28;46502;-70
2024/01/13 03:07:04;;;;;;;53.43;22.23;;;-3.10;42.30;;;;;;5044361;28;47351;-68
2024/01/13 03:09:30;;;;;;;52.07;21.27;;;-3.00;41.70;;;;;;5043820;28;46448;-69
2024/01/13 03:11:55;;;;;;;62.10;23.77;;;-3.10;41.60;;;;;;5043027;28;46428;-68
2024/01/13 03:14:21;;;;;;;53.30;23.40;;;-3.10;42.00;;;;;;5026241;28;46634;-69
2024/01/13 03:16:47;;;;;;;58.17;22.43;;;-3.00;42.00;;;;;;5041512;28;47060;-69
2024/01/13 03:19:13;;;;;;;67.10;22.70;;;-3.00;42.00;;;;;;5041546;28;46558;-69
2024/01/13 03:21:39;;;;;;;49.72;22.85;;;-3.10;42.10;;;;;;5042826;28;46431;-68
2024/01/13 03:24:04;;;;;;;51.93;21.80;;;-3.10;42.30;;;;;;5040568;28;47142;-67
2024/01/13 03:26:30;;;;;;;55.13;21.70;;;-3.00;42.50;;;;;;5042610;28;46562;-70
2024/01/13 03:28:56;;;;;;;51.50;22.43;;;-3.10;42.30;;;;;;5041303;28;46928;-69
2024/01/13 03:31:21;;;;;;;50.00;20.97;;;-3.10;42.30;;;;;;5041816;28;46008;-68
2024/01/13 03:33:47;;;;;;;52.27;21.97;;;-3.10;42.50;;;;;;5042978;28;46585;-69
2024/01/13 03:36:12;;;;;;;48.23;21.73;;;-3.10;42.40;;;;;;5044794;28;46400;-70
2024/01/13 03:38:38;;;;;;;51.90;22.27;;;-3.10;42.40;;;;;;5045149;28;46717;-69
2024/01/13 03:41:04;;;;;;;53.30;22.38;;;-3.00;41.60;;;;;;5045299;28;46464;-69
2024/01/13 03:43:30;;;;;;;45.83;21.17;;;-3.10;41.40;;;;;;5045531;28;46676;-69
2024/01/13 03:45:56;;;;;;;56.00;21.37;;;-3.20;41.30;;;;;;5046719;28;46528;-69
2024/01/13 03:48:21;;;;;;;47.87;20.90;;;-3.20;41.50;;;;;;5030066;28;46399;-68
2024/01/13 03:50:47;;;;;;;59.40;22.27;;;-3.20;41.50;;;;;;5046681;28;46656;-69
2024/01/13 03:53:12;;;;;;;51.50;20.70;;;-3.20;41.60;;;;;;5046416;28;46753;-68
2024/01/13 03:55:38;;;;;;;51.80;21.90;;;-3.20;41.60;;;;;;5047149;28;46541;-68
2024/01/13 03:58:04;;;;;;;43.97;20.60;;;-3.20;41.80;;;;;;5047171;28;45958;-69
2024/01/13 04:00:29;;;;;;;49.23;20.60;;;-3.20;41.90;;;;;;5048217;28;46622;-70
2024/01/13 04:02:56;;;;;;;44.83;21.53;;;-3.30;42.30;;;;;;5047665;28;46544;-70
2024/01/13 04:05:21;;;;;;;48.28;20.65;;;-3.30;42.20;;;;;;5048906;28;46774;-70
2024/01/13 04:07:47;;;;;;;54.47;20.80;;;-3.30;42.10;;;;;;5046326;28;46355;-69
2024/01/13 04:10:12;;;;;;;51.07;20.40;;;-3.30;42.30;;;;;;5046814;28;46613;-70
2024/01/13 04:12:40;;;;;;;55.63;21.90;;;-3.30;42.20;;;;;;5048520;28;46674;-68
2024/01/13 04:15:06;;;;;;;51.17;21.48;;;-3.30;41.70;;;;;;5042819;28;47159;-68
2024/01/13 04:17:31;;;;;;;55.30;22.63;;;-3.30;41.80;;;;;;5036675;28;46876;-70
2024/01/13 04:19:57;;;;;;;52.50;22.07;;;-3.30;41.30;;;;;;5046895;28;46651;-69
2024/01/13 04:22:22;;;;;;;54.57;22.67;;;-3.20;41.40;;;;;;5046237;28;46476;-70
2024/01/13 04:24:48;;;;;;;48.43;21.27;;;-3.20;41.40;;;;;;5046622;28;46603;-68
2024/01/13 04:27:13;;;;;;;49.27;21.70;;;-3.20;41.30;;;;;;5047668;28;46538;-70
2024/01/13 04:29:39;;;;;;;53.27;21.40;;;-3.20;41.30;;;;;;5046776;28;46385;-68
2024/01/13 04:32:05;;;;;;;51.60;21.00;;;-3.30;42.40;;;;;;5046329;28;46577;-70
2024/01/13 04:34:31;;;;;;;52.13;23.08;;;-3.30;41.20;;;;;;5046173;28;47130;-70
2024/01/13 04:36:57;;;;;;;53.47;22.00;;;-3.30;41.30;;;;;;5046187;28;46969;-70
2024/01/13 04:39:22;;;;;;;52.47;19.80;;;-3.40;41.10;;;;;;5045573;28;46514;-69
2024/01/13 04:41:48;;;;;;;49.00;22.13;;;-3.40;41.20;;;;;;5045299;28;46731;-70
2024/01/13 04:44:13;;;;;;;59.90;23.17;;;-3.40;41.10;;;;;;5042437;28;47389;-70
2024/01/13 04:46:39;;;;;;;56.33;22.20;;;-3.40;41.10;;;;;;5043994;28;46720;-70
2024/01/13 04:49:05;;;;;;;46.23;20.13;;;-3.40;41.30;;;;;;5040678;28;45971;-68
2024/01/13 04:51:30;;;;;;;53.13;20.93;;;-3.40;41.50;;;;;;5043779;28;46621;-68
2024/01/13 04:53:56;;;;;;;62.33;20.60;;;-3.40;41.40;;;;;;5040678;28;46988;-70
2024/01/13 04:56:22;;;;;;;49.25;21.75;;;-3.40;41.80;;;;;;5045235;28;46959;-69
2024/01/13 04:58:49;;;;;;;44.10;19.33;;;-3.40;41.20;;;;;;5045538;28;46822;-70
2024/01/13 05:01:15;;;;;;;53.10;21.75;;;-3.40;41.20;;;;;;5042715;28;46493;-70
2024/01/13 05:03:41;;;;;;;50.20;20.07;;;-3.40;41.20;;;;;;5026625;28;47248;-69
2024/01/13 05:06:08;;;;;;;51.08;19.85;;;-3.40;41.10;;;;;;5043476;28;46583;-70
2024/01/13 05:08:34;;;;;;;47.92;22.02;;;-3.50;41.10;;;;;;5043031;28;45866;-70
2024/01/13 05:10:59;;;;;;;56.57;23.10;;;-3.50;41.10;;;;;;5043312;28;46864;-70
2024/01/13 05:13:25;;;;;;;43.83;20.30;;;-3.40;41.30;;;;;;5030959;28;47468;-70
2024/01/13 05:15:50;;;;;;;54.70;22.60;;;-3.40;41.20;;;;;;5048183;28;46579;-70
2024/01/13 05:18:16;;;;;;;52.67;20.77;;;-3.40;41.60;;;;;;5044846;28;46530;-69
2024/01/13 05:20:41;;;;;;;53.30;23.67;;;-3.40;41.50;;;;;;5045189;28;46499;-70
2024/01/13 05:23:07;;;;;;;46.40;22.77;;;-3.30;41.20;;;;;;5043975;28;47097;-70
2024/01/13 05:25:33;;;;;;;53.73;23.17;;;-3.30;41.30;;;;;;5044477;28;46352;-68
2024/01/13 05:27:58;;;;;;;49.77;20.23;;;-3.40;41.80;;;;;;5046020;28;46455;-69
2024/01/13 05:30:26;;;;;;;58.07;21.83;;;-3.40;41.80;;;;;;5044255;28;46746;-68
2024/01/13 05:32:52;;;;;;;51.97;22.48;;;-3.30;41.30;;;;;;5047001;28;46461;-70
2024/01/13 05:35:17;;;;;;;52.30;24.13;;;-3.30;41.20;;;;;;5027312;28;46712;-70
2024/01/13 05:37:43;;;;;;;54.33;21.50;;;-3.30;41.20;;;;;;5048033;28;46305;-68
2024/01/13 05:40:10;;;;;;;49.70;21.13;;;-3.30;41.20;;;;;;5046505;28;46491;-70
2024/01/13 05:42:36;;;;;;;51.90;22.15;;;-3.30;41.60;;;;;;5048349;28;46646;-67
2024/01/13 05:45:02;;;;;;;56.73;22.40;;;-3.30;41.90;;;;;;5044812;28;46450;-70
2024/01/13 05:47:28;;;;;;;53.80;22.45;;;-3.30;41.90;;;;;;5049626;28;46534;-70
2024/01/13 05:49:53;;;;;;;53.13;22.30;;;-3.20;41.40;;;;;;5045689;28;47427;-70
2024/01/13 05:52:19;;;;;;;51.57;19.77;;;-3.20;41.30;;;;;;5044763;28;47120;-68
2024/01/13 05:54:44;;;;;;;51.20;21.77;;;-3.20;41.30;;;;;;5045004;28;46550;-68
2024/01/13 05:57:10;;;;;;;54.60;22.60;;;-3.20;41.40;;;;;;5043403;28;46395;-69
2024/01/13 05:59:36;;;;;;;52.20;21.13;;;-3.30;41.20;;;;;;5042578;28;46663;-69
2024/01/13 06:02:01;;;;;;;62.33;24.03;;;-3.30;41.20;;;;;;5041875;28;46729;-69
2024/01/13 06:04:27;;;;;;;54.80;21.27;;;-3.30;41.40;;;;;;5042952;28;46572;-69
2024/01/13 06:06:53;;;;;;;62.63;22.97;;;-3.30;41.20;;;;;;5045609;28;45978;-70
2024/01/13 06:09:18;;;;;;;56.20;22.07;;;-3.30;41.20;;;;;;5044216;28;46841;-69
2024/01/13 06:11:44;;;;;;;51.63;21.87;;;-3.30;41.20;;;;;;5042621;28;46437;-70
2024/01/13 06:14:09;;;;;;;58.07;24.77;;;-3.30;41.30;;;;;;5042601;28;46558;-68
2024/01/13 06:16:35;;;;;;;61.83;22.67;;;-3.30;41.20;;;;;;5029506;28;46558;-68
2024/01/13 06:19:02;;;;;;;52.50;22.17;;;-3.30;41.20;;;;;;5042252;28;46632;-68
2024/01/13 06:21:28;;;;;;;54.25;22.52;;;-3.30;41.20;;;;;;5042337;28;46626;-69
2024/01/13 06:23:56;;;;;;;56.67;23.47;;;-3.30;41.20;;;;;;5043811;28;46656;-68
2024/01/13 06:26:22;;;;;;;54.25;21.48;;;-3.30;41.20;;;;;;5042190;28;46633;-70
2024/01/13 06:28:47;;;;;;;56.73;20.97;;;-3.30;41.20;;;;;;5043087;28;46671;-67
2024/01/13 06:31:13;;;;;;;65.73;23.73;;;-3.30;41.20;;;;;;5026047;28;48071;-67
2024/01/13 06:33:38;;;;;;;55.43;22.60;;;-3.30;41.20;;;;;;5043397;28;46829;-68
2024/01/13 06:36:04;;;;;;;54.83;21.77;;;-3.20;41.30;;;;;;5044949;28;46547;-67
2024/01/13 06:38:30;;;;;;;64.57;24.57;;;-3.20;41.30;;;;;;5040911;28;46939;-65
2024/01/13 06:40:55;;;;;;;53.80;22.10;;;-3.20;41.30;;;;;;5044710;28;47472;-67
2024/01/13 06:43:21;;;;;;;57.63;22.27;;;-3.20;41.30;;;;;;5041788;28;46488;-67
2024/01/13 06:45:46;;;;;;;58.17;22.13;;;-3.20;41.30;;;;;;5043923;28;46479;-67
2024/01/13 06:48:12;;;;;;;56.17;21.57;;;-3.20;41.30;;;;;;5045805;28;46770;-67
2024/01/13 06:50:37;;;;;;;59.70;24.27;;;-3.20;41.30;;;;;;5042672;28;47106;-67
2024/01/13 06:53:03;;;;;;;51.43;22.00;;;-3.20;41.30;;;;;;5042422;28;45845;-67
2024/01/13 06:55:28;;;;;;;58.80;22.17;;;-3.20;41.30;;;;;;5043205;28;46621;-66
2024/01/13 06:57:54;;;;;;;50.70;21.37;;;-3.20;41.30;;;;;;5041206;28;46260;-66
2024/01/13 07:00:20;;;;;;;54.37;21.60;;;-3.30;41.20;;;;;;5023709;28;46491;-67
2024/01/13 07:02:46;;;;;;;56.22;21.27;;;-3.30;41.20;;;;;;5042188;28;46395;-67
2024/01/13 07:05:12;;;;;;;50.20;20.57;;;-3.30;41.20;;;;;;5041556;28;46629;-67
2024/01/13 07:07:39;;;;;;;53.72;22.25;;;-3.30;41.20;;;;;;5043145;28;47413;-67
2024/01/13 07:10:05;;;;;;;65.40;23.60;;;-3.30;41.30;;;;;;5034657;28;46269;-67
2024/01/13 07:12:31;;;;;;;56.40;21.20;;;-3.30;41.20;;;;;;5041900;28;46743;-67
2024/01/13 07:14:57;;;;;;;57.80;21.47;;;-3.30;41.20;;;;;;5043844;28;46625;-67
2024/01/13 07:17:22;;;;;;;58.87;22.47;;;-3.40;41.10;;;;;;5023824;28;46869;-67
2024/01/13 07:19:48;;;;;;;47.77;20.00;;;-3.40;41.10;;;;;;5041866;28;46579;-68
2024/01/13 07:22:13;;;;;;;60.57;21.87;;;-3.40;41.10;;;;;;5041519;28;46365;-66
2024/01/13 07:24:39;;;;;;;55.90;20.90;;;-3.50;41.10;;;;;;5040635;28;46518;-67
2024/01/13 07:27:04;;;;;;;54.03;20.50;;;-3.50;41.60;;;;;;5044134;28;46384;-67
2024/01/13 07:29:30;;;;;;;55.30;20.80;;;-3.50;41.60;;;;;;5041650;28;46629;-67
2024/01/13 07:31:56;;;;;;;62.33;20.93;;;-3.50;41.60;;;;;;5042484;28;45950;-67
2024/01/13 07:34:22;;;;;;;68.43;20.80;;;-3.50;41.70;;;;;;5041628;28;46479;-67
2024/01/13 07:36:47;;;;;;;52.07;19.97;;;-3.50;41.90;;;;;;5041734;28;46691;-68
2024/01/13 07:39:13;;;;;;;57.27;23.50;;;-3.40;41.80;;;;;;5039531;28;46568;-67
2024/01/13 07:41:39;;;;;;;51.00;20.57;;;-3.40;41.10;;;;;;5041563;28;46642;-68
2024/01/13 07:44:05;;;;;;;51.47;21.88;;;-3.40;41.10;;;;;;5023345;28;46523;-67
2024/01/13 07:46:31;;;;;;;54.17;19.95;;;-3.30;41.30;;;;;;5022829;28;46395;-65
2024/01/13 07:48:56;;;;;;;48.50;19.17;;;-3.30;41.20;;;;;;5041852;28;47448;-66
2024/01/13 07:51:22;;;;;;;46.43;19.90;;;-3.40;41.60;;;;;;5041599;28;46676;-66
2024/01/13 07:53:47;;;;;;;48.93;22.20;;;-3.40;41.60;;;;;;5043397;28;46440;-68
2024/01/13 07:56:13;;;;;;;46.10;19.77;;;-3.20;41.50;;;;;;5041652;28;46555;-67
2024/01/13 07:58:39;;;;;;;53.20;20.73;;;-3.20;41.30;;;;;;5039531;28;47044;-66
2024/01/13 08:01:04;;;;;;;48.33;19.57;;;-3.10;41.40;;;;;;5031447;28;46515;-66
2024/01/13 08:03:30;;;;;;;48.23;19.77;;;-3.10;41.30;;;;;;5041163;28;46699;-66
2024/01/13 08:05:55;;;;;;;46.90;18.90;;;-3.10;41.40;;;;;;5041108;28;46595;-66
2024/01/13 08:08:21;;;;;;;52.93;18.63;;;-3.30;41.80;;;;;;5042494;28;47102;-66
2024/01/13 08:10:47;;;;;;;54.80;18.50;;;-3.50;42.40;;;;;;5040439;28;46762;-67
2024/01/13 08:13:14;;;;;;;47.00;15.53;;;-3.50;42.60;;;;;;5042350;28;46856;-67
2024/01/13 08:15:40;;;;;;;47.92;15.35;;;-3.60;42.70;;;;;;5039092;28;46641;-68
2024/01/13 08:18:06;;;;;;;47.90;18.40;;;-3.80;43.20;;;;;;5043450;28;46971;-66
2024/01/13 08:20:31;;;;;;;42.97;18.77;;;-3.80;43.60;;;;;;5040836;28;46578;-67
2024/01/13 08:22:57;;;;;;;42.13;16.93;;;-3.70;43.30;;;;;;5040398;28;46598;-67
2024/01/13 08:25:23;;;;;;;43.50;17.97;;;-3.60;43.00;;;;;;5028673;28;46588;-66
2024/01/13 08:27:49;;;;;;;36.23;16.10;;;-3.50;42.60;;;;;;5044588;28;47415;-66
2024/01/13 08:30:15;;;;;;;43.50;18.15;;;-3.30;42.20;;;;;;5043719;28;46508;-65
2024/01/13 08:32:40;;;;;;;44.87;17.73;;;-3.20;41.30;;;;;;5043045;28;46493;-67
2024/01/13 08:35:07;;;;;;;35.07;17.17;;;-3.10;41.40;;;;;;5043777;28;46643;-65
2024/01/13 08:37:32;;;;;;;35.88;16.40;;;-3.10;41.40;;;;;;5046426;28;46535;-66
2024/01/13 08:39:58;;;;;;;34.90;16.43;;;-3.10;41.40;;;;;;5041988;28;46745;-67
2024/01/13 08:42:24;;;;;;;36.17;16.17;;;-3.10;41.30;;;;;;5043893;28;46611;-66
2024/01/13 08:44:49;;;;;;;34.10;15.23;;;-3.10;41.40;;;;;;5044336;28;46586;-66
2024/01/13 08:47:15;;;;;;;34.83;15.40;;;-3.10;41.40;;;;;;5044127;28;47201;-66
2024/01/13 08:49:41;;;;;;;31.37;14.00;;;-3.00;41.50;;;;;;5044931;28;46567;-67
2024/01/13 08:52:08;;;;;;;32.10;16.33;;;-2.90;41.60;;;;;;5044823;28;46916;-67
2024/01/13 08:54:35;;;;;;;20.75;10.65;;;-2.80;41.60;;;;;;5040393;28;46847;-68
2024/01/13 08:57:01;;;;;;;24.38;9.68;;;-2.80;41.60;;;;;;5043950;28;47237;-65
2024/01/13 08:59:26;;;;;;;19.90;9.80;;;-2.90;41.60;;;;;;5045813;28;46737;-66
2024/01/13 09:01:52;;;;;;;18.50;9.83;;;-2.80;41.60;;;;;;5043884;28;46414;-66
2024/01/13 09:04:18;;;;;;;16.17;9.70;;;-2.80;41.70;;;;;;5045444;28;46476;-67
2024/01/13 09:06:44;;;;;;;19.88;9.77;;;-2.80;41.60;;;;;;5044701;28;47128;-68
2024/01/13 09:09:10;;;;;;;15.50;8.30;;;-2.60;41.90;;;;;;5044269;28;46605;-67
2024/01/13 09:11:36;;;;;;;14.32;7.57;;;-2.60;41.10;;;;;;5043053;28;46631;-65
2024/01/13 09:14:02;;;;;;;18.70;9.13;;;-2.50;41.30;;;;;;5044892;28;46575;-66
2024/01/13 09:16:27;;;;;;;14.93;8.73;;;-2.60;41.40;;;;;;5043447;28;46563;-68
2024/01/13 09:18:54;;;;;;;17.03;8.77;;;-2.70;41.10;;;;;;5045965;28;46429;-67
2024/01/13 09:21:19;;;;;;;21.33;8.70;;;-2.70;41.70;;;;;;5044493;28;46577;-66
2024/01/13 09:23:46;;;;;;;16.40;7.87;;;-2.50;41.50;;;;;;5041393;28;46544;-66
2024/01/13 09:26:12;;;;;;;18.88;8.23;;;-2.30;40.60;;;;;;5042747;28;46803;-67
2024/01/13 09:28:37;;;;;;;16.17;8.53;;;-2.10;40.10;;;;;;5043804;28;45981;-66
2024/01/13 09:31:03;;;;;;;15.80;7.77;;;-1.90;39.60;;;;;;5044091;28;45971;-67
2024/01/13 09:33:29;;;;;;;15.20;8.20;;;-1.90;39.40;;;;;;5045248;28;46610;-67
2024/01/13 09:35:55;;;;;;;17.70;7.57;;;-1.80;39.20;;;;;;5025227;28;48054;-66
2024/01/13 09:38:21;;;;;;;14.70;7.20;;;-1.50;38.90;;;;;;5047369;22;46153;-67
2024/01/13 09:40:46;;;;;;;14.13;7.43;;;-1.40;38.30;;;;;;5026694;28;46392;-67
2024/01/13 09:43:25;;;;;;;17.30;9.30;;;-1.20;38.10;;;;;;5028175;28;46754;-67
2024/01/13 09:45:52;;;;;;;17.65;8.70;;;-1.10;37.60;;;;;;5024670;28;46465;-67
2024/01/13 09:48:20;;;;;;;15.63;7.43;;;-1.10;37.70;;;;;;5027595;28;46505;-67
2024/01/13 09:50:49;;;;;;;19.48;8.85;;;-1.30;38.10;;;;;;5025863;28;46850;-67
2024/01/13 09:53:31;;;;;;;19.67;9.05;;;-1.10;38.00;;;;;;5028882;28;45996;-66
2024/01/13 09:56:03;;;;;;;21.23;9.27;;;-0.90;37.70;;;;;;5025024;28;46770;-66
2024/01/13 09:58:29;;;;;;;18.88;8.95;;;-0.80;37.50;;;;;;5026934;28;46726;-66
2024/01/13 10:00:56;;;;;;;26.77;9.05;;;-0.90;37.80;;;;;;5029300;28;46430;-67
2024/01/13 10:03:21;;;;;;;20.40;9.45;;;-1.10;38.30;;;;;;5028704;28;46821;-66
2024/01/13 10:05:50;;;;;;;28.40;9.37;;;-1.10;38.70;;;;;;5028246;28;46448;-68
2024/01/13 10:08:18;;;;;;;20.73;8.73;;;-1.30;38.30;;;;;;5027931;28;46816;-70
2024/01/13 10:10:44;;;;;;;21.83;9.77;;;-1.60;38.60;;;;;;5027923;28;46737;-67
2024/01/13 10:13:10;;;;;;;27.10;9.35;;;-1.80;39.50;;;;;;5028171;28;46601;-66
2024/01/13 10:15:36;;;;;;;24.98;9.77;;;-2.00;39.80;;;;;;5018422;28;47080;-67
2024/01/13 10:18:01;;;;;;;25.57;10.30;;;-1.80;39.60;;;;;;5031281;28;46778;-66
2024/01/13 10:20:27;;;;;;;21.60;9.90;;;-1.80;39.60;;;;;;5027007;28;46576;-66
2024/01/13 10:22:53;;;;;;;17.87;8.10;;;-1.70;39.50;;;;;;5025601;28;46420;-67
2024/01/13 10:25:21;;;;;;;23.90;10.20;;;-1.50;39.00;;;;;;5025926;28;47079;-66
2024/01/13 10:27:47;;;;;;;27.20;9.02;;;-1.70;38.70;;;;;;5023860;28;46400;-68
2024/01/13 10:30:14;;;;;;;21.23;9.95;;;-1.60;39.30;;;;;;5027903;28;46483;-68
2024/01/13 10:32:42;;;;;;;23.70;10.00;;;-1.50;38.80;;;;;;5025882;28;46677;-64
2024/01/13 10:35:08;;;;;;;24.35;10.23;;;-1.50;38.80;;;;;;5026624;28;46916;-67
2024/01/13 10:37:35;;;;;;;26.90;10.05;;;-1.20;38.50;;;;;;5025944;28;46636;-67
2024/01/13 10:40:01;;;;;;;24.38;9.50;;;-0.90;37.80;;;;;;5022005;28;47053;-67
2024/01/13 10:42:34;;;;;;;21.87;7.63;;;-0.70;37.30;;;;;;5025312;28;46858;-64
2024/01/13 10:45:04;;;;;;;18.35;7.10;;;-1.20;37.50;;;;;;5018793;28;47267;-68
2024/01/13 10:47:32;;;;;;;24.58;9.70;;;-1.50;38.60;;;;;;5026258;28;46612;-68
2024/01/13 10:49:58;;;;;;;20.13;8.73;;;-1.80;39.70;;;;;;5024894;28;46546;-67
2024/01/13 10:52:48;;;;;;;27.83;10.25;;;-1.90;40.20;;;;;;5021652;28;46412;-67
2024/01/13 10:55:14;;;;;;;21.05;8.23;;;-1.50;39.60;;;;;;5022461;28;46823;-67
2024/01/13 10:57:41;;;;;;;17.98;8.50;;;-1.40;39.00;;;;;;5023357;28;46401;-64
2024/01/13 11:00:10;;;;;;;20.98;8.95;;;-1.40;38.80;;;;;;5024678;28;46536;-65
2024/01/13 11:02:37;;;;;;;21.52;8.70;;;-1.50;38.80;;;;;;5025936;28;46535;-65
2024/01/13 11:05:04;;;;;;;20.10;7.63;;;-1.70;39.50;;;;;;5022132;28;47253;-65
2024/01/13 11:07:30;;;;;;;17.17;8.02;;;-1.90;40.20;;;;;;5024275;28;46486;-65
2024/01/13 11:09:57;;;;;;;14.23;6.70;;;-2.00;40.80;;;;;;5023159;28;46443;-65
2024/01/13 11:12:41;;;;;;;23.80;10.00;;;-2.10;41.50;;;;;;5026107;28;46904;-65
2024/01/13 11:15:17;;;;;;;23.10;9.80;;;-2.10;42.20;;;;;;5027085;28;46718;-66
2024/01/13 11:17:46;;;;;;;16.48;7.47;;;-2.10;41.80;;;;;;5026282;28;46497;-65
2024/01/13 11:20:12;;;;;;;18.90;8.55;;;-2.10;42.20;;;;;;5025616;28;46485;-65
2024/01/13 11:22:42;;;;;;;26.20;9.40;;;-2.20;42.20;;;;;;5023772;28;46471;-65
2024/01/13 11:25:26;;;;;;;25.10;10.27;;;-2.20;42.20;;;;;;5022911;28;46419;-65
2024/01/13 11:28:02;;;;;;;24.35;11.18;;;-1.60;41.90;;;;;;5026314;28;46439;-65
2024/01/13 11:30:49;;;;;;;19.90;7.60;;;-1.20;40.20;;;;;;5013816;28;46381;-65
2024/01/13 11:33:17;;;;;;;22.25;10.02;;;-1.10;39.40;;;;;;5024852;28;46792;-65
2024/01/13 11:35:50;;;;;;;23.42;8.75;;;-1.30;39.50;;;;;;5025173;28;46508;-66
2024/01/13 11:38:15;;;;;;;22.98;8.43;;;-1.30;39.80;;;;;;5025390;28;46893;-66
2024/01/13 11:40:46;;;;;;;25.43;9.10;;;-1.30;39.80;;;;;;5024215;28;45951;-65
2024/01/13 11:43:23;;;;;;;16.90;8.00;;;-1.30;39.80;;;;;;5022581;28;45987;-66
2024/01/13 11:45:50;;;;;;;24.85;8.50;;;-1.50;40.00;;;;;;5024630;28;46442;-65
2024/01/13 11:48:35;;;;;;;23.90;10.30;;;-1.50;40.40;;;;;;5021596;28;46759;-67
2024/01/13 11:51:01;;;;;;;22.65;7.38;;;-1.50;40.60;;;;;;5021808;28;46385;-68
2024/01/13 11:53:33;;;;;;;27.85;10.98;;;-1.50;40.80;;;;;;5023198;28;46822;-65
2024/01/13 11:55:59;;;;;;;28.52;10.45;;;-1.60;41.00;;;;;;5022931;28;47055;-67
2024/01/13 11:58:25;;;;;;;31.00;11.43;;;-1.40;40.80;;;;;;5022660;28;47040;-66
2024/01/13 12:00:51;;;;;;;24.88;9.73;;;-1.30;40.50;;;;;;5024433;28;46193;-65
2024/01/13 12:03:16;;;;;;;26.13;11.60;;;-1.10;40.30;;;;;;5019429;28;46556;-65
2024/01/13 12:05:42;;;;;;;25.40;9.83;;;-1.00;40.00;;;;;;5024801;28;46452;-67
2024/01/13 12:08:08;;;;;;;22.10;9.87;;;-0.90;39.80;;;;;;5025621;28;46538;-65
2024/01/13 12:10:43;;;;;;;35.73;10.60;;;-0.50;39.50;;;;;;5010358;28;46669;-67
2024/01/13 12:13:19;;;;;;;23.33;10.15;;;-0.20;38.20;;;;;;5026542;28;46707;-67
2024/01/13 12:15:47;;;;;;;27.15;10.98;;;-0.40;38.20;;;;;;5029183;28;46394;-67
2024/01/13 12:18:20;;;;;;;32.00;9.65;;;-0.50;38.40;;;;;;5026671;28;46425;-65
2024/01/13 12:21:04;;;;;;;29.20;11.32;;;-0.70;38.70;;;;;;5028642;28;46437;-65
2024/01/13 12:23:30;;;;;;;20.58;9.30;;;-0.90;39.40;;;;;;5028605;28;46377;-66
2024/01/13 12:25:56;;;;;;;29.07;11.63;;;-1.00;40.00;;;;;;5027875;28;46497;-67